createdAt,value
2019-03-04T00:01:53.148Z,38.03
2019-03-04T00:04:20.588Z,41.30
2019-03-04T00:06:48.040Z,37.33
2019-03-04T00:09:15.457Z,31.57
2019-03-04T00:11:43.017Z,38.70
2019-03-04T00:14:10.600Z,41.43
2019-03-04T00:16:38.222Z,33.73
2019-03-04T00:19:05.674Z,38.47
2019-03-04T00:21:33.129Z,42.27
2019-03-04T00:24:00.513Z,38.90
2019-03-04T00:26:27.964Z,38.63
2019-03-04T00:28:55.412Z,42.37
2019-03-04T00:31:22.785Z,35.57
2019-03-04T00:33:50.324Z,42.67
2019-03-04T00:36:17.829Z,37.97
2019-03-04T00:38:45.259Z,34.20
2019-03-04T00:41:12.766Z,30.23
2019-03-04T00:43:40.214Z,35.63
2019-03-04T00:46:07.639Z,33.33
2019-03-04T00:48:35.168Z,34.03
2019-03-04T00:51:02.591Z,32.40
2019-03-04T00:53:29.986Z,33.37
2019-03-04T00:55:57.394Z,26.03
2019-03-04T00:58:24.822Z,27.47
2019-03-04T01:00:52.258Z,27.37
2019-03-04T01:03:19.687Z,26.03
2019-03-04T01:05:47.129Z,32.17
2019-03-04T01:08:14.514Z,33.50
2019-03-04T01:10:41.954Z,34.30
2019-03-04T01:13:09.388Z,36.00
2019-03-04T01:15:37.292Z,39.27
2019-03-04T01:18:04.966Z,34.63
2019-03-04T01:20:32.410Z,35.80
2019-03-04T01:22:59.829Z,35.20
2019-03-04T01:25:27.285Z,35.50
2019-03-04T01:27:54.680Z,35.93
2019-03-04T01:30:22.611Z,34.30
2019-03-04T01:32:50.865Z,34.27
2019-03-04T01:35:18.510Z,32.13
2019-03-04T01:37:46.070Z,32.53
2019-03-04T01:40:15.609Z,33.93
2019-03-04T01:42:43.126Z,30.30
2019-03-04T01:45:11.186Z,29.83
2019-03-04T01:47:38.635Z,33.83
2019-03-04T01:50:08.006Z,26.50
2019-03-04T01:52:35.451Z,36.10
2019-03-04T01:55:03.114Z,31.70
2019-03-04T01:57:30.516Z,30.03
2019-03-04T01:59:58.446Z,33.93
2019-03-04T02:02:26.001Z,32.83
2019-03-04T02:04:53.436Z,33.50
2019-03-04T02:07:20.788Z,28.90
2019-03-04T02:09:48.414Z,29.33
2019-03-04T02:12:15.850Z,32.83
2019-03-04T02:14:43.464Z,30.00
2019-03-04T02:17:10.984Z,28.70
2019-03-04T02:19:38.417Z,28.60
2019-03-04T02:22:05.870Z,28.97
2019-03-04T02:24:33.279Z,30.83
2019-03-04T02:27:00.740Z,27.03
2019-03-04T02:29:28.177Z,26.60
2019-03-04T02:31:55.591Z,23.50
2019-03-04T02:34:23.026Z,23.23
2019-03-04T02:36:50.578Z,23.13
2019-03-04T02:39:18.270Z,27.30
2019-03-04T02:41:46.309Z,29.07
2019-03-04T02:44:13.731Z,26.60
2019-03-04T02:46:41.122Z,22.40
2019-03-04T02:49:08.543Z,24.17
2019-03-04T02:51:36.001Z,28.03
2019-03-04T02:54:03.552Z,27.00
2019-03-04T02:56:31.093Z,29.30
2019-03-04T02:58:58.522Z,29.87
2019-03-04T03:01:25.975Z,29.10
2019-03-04T03:03:53.415Z,25.27
2019-03-04T03:06:20.778Z,26.20
2019-03-04T03:08:48.203Z,23.50
2019-03-04T03:11:15.640Z,24.20
2019-03-04T03:13:42.991Z,21.07
2019-03-04T03:16:10.431Z,21.87
2019-03-04T03:18:38.402Z,18.77
2019-03-04T03:21:05.786Z,21.77
2019-03-04T03:23:33.224Z,17.93
2019-03-04T03:26:00.666Z,21.33
2019-03-04T03:28:28.062Z,20.53
2019-03-04T03:30:55.489Z,20.63
2019-03-04T03:33:22.934Z,20.43
2019-03-04T03:35:50.362Z,21.50
2019-03-04T03:38:17.926Z,16.07
2019-03-04T03:40:45.397Z,16.03
2019-03-04T03:43:12.847Z,15.40
2019-03-04T03:45:40.344Z,19.67
2019-03-04T03:48:07.785Z,21.03
2019-03-04T03:50:35.226Z,18.30
2019-03-04T03:53:02.686Z,18.93
2019-03-04T03:55:30.107Z,20.40
2019-03-04T03:57:57.553Z,17.33
2019-03-04T04:00:25.475Z,17.13
2019-03-04T04:02:52.902Z,15.50
2019-03-04T04:05:20.425Z,16.57
2019-03-04T04:07:48.131Z,15.67
2019-03-04T04:10:15.698Z,11.97
2019-03-04T04:12:43.160Z,14.20
2019-03-04T04:15:11.013Z,12.33
2019-03-04T04:17:38.588Z,16.40
2019-03-04T04:20:06.180Z,13.27
2019-03-04T04:22:33.615Z,15.30
2019-03-04T04:25:01.065Z,12.47
2019-03-04T04:27:28.521Z,15.90
2019-03-04T04:29:55.966Z,15.20
2019-03-04T04:32:23.350Z,19.70
2019-03-04T04:34:50.794Z,15.03
2019-03-04T04:37:18.230Z,15.50
2019-03-04T04:39:45.775Z,15.47
2019-03-04T04:42:13.237Z,18.83
2019-03-04T04:44:40.655Z,19.67
2019-03-04T04:47:09.197Z,17.33
2019-03-04T04:49:36.648Z,20.40
2019-03-04T04:52:04.467Z,21.13
2019-03-04T04:54:31.857Z,33.13
2019-03-04T04:56:59.311Z,55.73
2019-03-04T04:59:26.783Z,42.30
2019-03-04T05:01:54.282Z,34.33
2019-03-04T05:04:22.324Z,34.57
2019-03-04T05:06:49.813Z,34.37
2019-03-04T05:09:17.157Z,35.07
2019-03-04T05:11:44.590Z,31.27
2019-03-04T05:14:12.004Z,35.17
2019-03-04T05:16:39.864Z,28.13
2019-03-04T05:19:07.385Z,35.40
2019-03-04T05:21:34.842Z,39.27
2019-03-04T05:24:02.492Z,34.70
2019-03-04T05:26:29.923Z,37.27
2019-03-04T05:28:57.362Z,38.70
2019-03-04T05:31:24.786Z,36.10
2019-03-04T05:33:52.218Z,45.77
2019-03-04T05:36:19.646Z,43.00
2019-03-04T05:38:47.053Z,40.03
2019-03-04T05:41:14.575Z,46.67
2019-03-04T05:43:41.978Z,47.93
2019-03-04T05:46:09.424Z,45.80
2019-03-04T05:48:36.791Z,44.20
2019-03-04T05:51:04.234Z,38.83
2019-03-04T05:53:31.653Z,42.47
2019-03-04T05:55:59.039Z,39.83
2019-03-04T05:58:26.475Z,36.80
2019-03-04T06:01:17.512Z,35.30
2019-03-04T06:03:45.679Z,32.10
2019-03-04T06:06:13.160Z,29.20
2019-03-04T06:08:40.601Z,31.73
2019-03-04T06:11:08.011Z,27.33
2019-03-04T06:13:35.483Z,29.13
2019-03-04T06:16:03.036Z,28.17
2019-03-04T06:18:30.557Z,26.80
2019-03-04T06:20:57.951Z,29.77
2019-03-04T06:23:25.408Z,31.90
2019-03-04T06:25:52.885Z,29.43
2019-03-04T06:28:20.376Z,35.40
2019-03-04T06:30:49.381Z,29.90
2019-03-04T06:33:16.843Z,26.67
2019-03-04T06:35:44.297Z,26.87
2019-03-04T06:38:11.815Z,30.23
2019-03-04T06:40:39.265Z,27.13
2019-03-04T06:43:06.765Z,27.10
2019-03-04T06:45:34.252Z,29.47
2019-03-04T06:48:01.691Z,27.53
2019-03-04T06:50:51.569Z,27.30
2019-03-04T06:53:26.743Z,30.67
2019-03-04T06:56:04.076Z,28.43
2019-03-04T06:58:31.959Z,23.43
2019-03-04T07:01:06.767Z,32.57
2019-03-04T07:03:50.723Z,51.40
2019-03-04T07:06:18.170Z,48.80
2019-03-04T07:09:12.215Z,32.63
2019-03-04T07:11:52.806Z,29.23
2019-03-04T07:14:20.231Z,29.03
2019-03-04T07:16:49.352Z,25.23
2019-03-04T07:19:26.365Z,27.40
2019-03-04T07:21:53.793Z,30.27
2019-03-04T07:24:21.171Z,27.47
2019-03-04T07:26:48.708Z,27.33
2019-03-04T07:29:16.232Z,24.60
2019-03-04T07:31:43.742Z,32.00
2019-03-04T07:34:11.248Z,26.23
2019-03-04T07:36:39.049Z,18.47
2019-03-04T07:39:13.623Z,22.57
2019-03-04T07:41:43.128Z,21.27
2019-03-04T07:44:10.851Z,20.63
2019-03-04T07:46:38.278Z,22.03
2019-03-04T07:49:05.719Z,20.50
2019-03-04T07:51:33.252Z,22.57
2019-03-04T07:54:00.622Z,24.33
2019-03-04T07:56:28.229Z,21.63
2019-03-04T07:58:55.669Z,20.27
2019-03-04T08:01:23.075Z,20.83
2019-03-04T08:03:50.940Z,21.03
2019-03-04T08:06:18.477Z,22.73
2019-03-04T08:09:12.552Z,24.17
2019-03-04T08:12:33.615Z,23.93
2019-03-04T08:15:01.042Z,23.27
2019-03-04T08:17:28.513Z,26.60
2019-03-04T08:19:56.106Z,27.17
2019-03-04T08:22:23.734Z,29.63
2019-03-04T08:24:51.125Z,35.07
2019-03-04T08:27:18.556Z,36.77
2019-03-04T08:29:45.981Z,30.80
2019-03-04T08:32:13.377Z,33.80
2019-03-04T08:34:40.845Z,31.27
2019-03-04T08:37:08.350Z,32.63
2019-03-04T08:39:35.738Z,28.10
2019-03-04T08:42:04.205Z,27.00
2019-03-04T08:44:31.679Z,28.30
2019-03-04T08:46:59.144Z,26.87
2019-03-04T08:49:26.522Z,26.00
2019-03-04T08:51:53.983Z,26.83
2019-03-04T08:54:21.428Z,23.63
2019-03-04T08:56:48.884Z,29.47
2019-03-04T08:59:16.264Z,25.33
2019-03-04T09:01:43.757Z,30.20
2019-03-04T09:04:11.225Z,26.17
2019-03-04T09:06:38.792Z,29.30
2019-03-04T09:09:07.223Z,26.20
2019-03-04T09:11:34.688Z,29.33
2019-03-04T09:14:02.164Z,28.10
2019-03-04T09:16:29.591Z,26.30
2019-03-04T09:18:57.107Z,29.57
2019-03-04T09:21:24.606Z,28.33
2019-03-04T09:23:51.989Z,25.03
2019-03-04T09:26:19.453Z,28.03
2019-03-04T09:28:46.894Z,22.00
2019-03-04T09:31:14.355Z,27.70
2019-03-04T09:33:41.740Z,26.70
2019-03-04T09:36:09.186Z,29.60
2019-03-04T09:38:36.618Z,29.93
2019-03-04T09:41:04.001Z,24.57
2019-03-04T09:43:31.527Z,26.97
2019-03-04T09:45:58.973Z,29.43
2019-03-04T09:48:26.334Z,30.97
2019-03-04T09:50:53.866Z,28.63
2019-03-04T09:53:21.331Z,29.97
2019-03-04T09:55:48.910Z,26.40
2019-03-04T09:58:16.397Z,25.50
2019-03-04T10:01:09.717Z,24.23
2019-03-04T10:04:18.499Z,29.07
2019-03-04T10:07:29.614Z,28.67
2019-03-04T10:10:37.454Z,24.97
2019-03-04T10:13:55.687Z,33.10
2019-03-04T10:16:45.778Z,26.87
2019-03-04T10:19:42.380Z,24.97
2019-03-04T10:22:19.199Z,23.83
2019-03-04T10:25:12.358Z,26.47
2019-03-04T10:28:04.831Z,18.50
2019-03-04T10:31:14.611Z,21.63
2019-03-04T10:34:57.179Z,22.27
2019-03-04T10:37:47.011Z,18.17
2019-03-04T10:40:45.592Z,20.03
2019-03-04T10:43:53.744Z,18.90
2019-03-04T10:46:54.245Z,16.63
2019-03-04T10:49:22.078Z,19.27
2019-03-04T10:51:49.653Z,16.17
2019-03-04T10:54:17.062Z,23.03
2019-03-04T10:56:44.493Z,19.30
2019-03-04T10:59:11.911Z,21.00
2019-03-04T11:01:39.408Z,14.33
2019-03-04T11:04:06.926Z,14.43
2019-03-04T11:06:34.420Z,13.77
2019-03-04T11:09:02.176Z,14.67
2019-03-04T11:11:30.248Z,11.03
2019-03-04T11:13:57.927Z,9.87
2019-03-04T11:16:25.400Z,9.93
2019-03-04T11:18:52.850Z,9.43
2019-03-04T11:21:20.500Z,9.57
2019-03-04T11:23:47.962Z,4.00
2019-03-04T11:26:15.574Z,3.07
2019-03-04T11:28:43.187Z,4.53
2019-03-04T11:31:10.664Z,3.20
2019-03-04T11:33:38.126Z,4.43
2019-03-04T11:36:05.532Z,2.57
2019-03-04T11:38:41.516Z,4.77
2019-03-04T11:41:12.302Z,5.33
2019-03-04T11:43:39.791Z,4.10
2019-03-04T11:46:07.206Z,7.33
2019-03-04T11:48:34.590Z,4.83
2019-03-04T11:51:02.021Z,3.57
2019-03-04T11:53:29.492Z,3.40
2019-03-04T11:55:56.956Z,2.30
2019-03-04T11:58:24.329Z,2.93
2019-03-04T12:01:03.134Z,2.33
2019-03-04T12:03:30.590Z,2.90
2019-03-04T12:05:58.053Z,2.43
2019-03-04T12:08:25.598Z,2.43
2019-03-04T12:10:53.062Z,4.87
2019-03-04T12:13:20.656Z,9.93
2019-03-04T12:15:48.084Z,10.63
2019-03-04T12:18:15.655Z,3.90
2019-03-04T12:20:43.577Z,9.97
2019-03-04T12:23:11.151Z,7.17
2019-03-04T12:25:38.678Z,3.40
2019-03-04T12:28:06.184Z,2.97
2019-03-04T12:30:33.671Z,5.93
2019-03-04T12:33:01.182Z,1.70
2019-03-04T12:35:28.628Z,5.37
2019-03-04T12:37:56.077Z,4.27
2019-03-04T12:40:23.850Z,3.63
2019-03-04T12:42:51.306Z,3.83
2019-03-04T12:45:18.905Z,3.73
2019-03-04T12:47:46.437Z,3.87
2019-03-04T12:50:19.675Z,5.50
2019-03-04T12:52:47.160Z,2.63
2019-03-04T12:55:14.584Z,3.13
2019-03-04T12:57:42.336Z,4.33
2019-03-04T13:00:18.171Z,2.73
2019-03-04T13:02:45.687Z,4.07
2019-03-04T13:05:13.400Z,3.13
2019-03-04T13:07:41.133Z,4.03
2019-03-04T13:10:09.482Z,3.43
2019-03-04T13:12:36.959Z,3.30
2019-03-04T13:15:05.891Z,3.50
2019-03-04T13:17:33.390Z,3.53
2019-03-04T13:20:00.944Z,4.20
2019-03-04T13:22:28.339Z,3.07
2019-03-04T13:24:55.951Z,3.90
2019-03-04T13:27:24.171Z,5.47
2019-03-04T13:29:51.636Z,4.23
2019-03-04T13:32:19.078Z,4.47
2019-03-04T13:34:46.531Z,4.77
2019-03-04T13:37:14.028Z,4.43
2019-03-04T13:39:41.405Z,3.40
2019-03-04T13:42:08.866Z,3.60
2019-03-04T13:44:36.429Z,4.73
2019-03-04T13:47:04.062Z,5.83
2019-03-04T13:49:31.613Z,3.10
2019-03-04T13:51:59.052Z,3.93
2019-03-04T13:54:26.570Z,5.20
2019-03-04T13:56:53.938Z,5.23
2019-03-04T13:59:21.492Z,4.37
2019-03-04T14:01:48.921Z,5.67
2019-03-04T14:04:17.507Z,4.03
2019-03-04T14:06:44.960Z,5.23
2019-03-04T14:09:14.503Z,5.50
2019-03-04T14:11:42.058Z,8.43
2019-03-04T14:14:09.501Z,9.27
2019-03-04T14:16:37.923Z,5.27
2019-03-04T14:19:05.807Z,10.17
2019-03-04T14:21:33.330Z,4.43
2019-03-04T14:24:00.854Z,6.60
2019-03-04T14:26:28.364Z,6.33
2019-03-04T14:28:55.837Z,4.63
2019-03-04T14:31:23.297Z,4.07
2019-03-04T14:33:50.710Z,4.57
2019-03-04T14:36:18.223Z,3.10
2019-03-04T14:38:45.712Z,4.13
2019-03-04T14:41:13.141Z,3.13
2019-03-04T14:43:40.579Z,3.47
2019-03-04T14:46:15.592Z,4.73
2019-03-04T14:48:43.065Z,3.57
2019-03-04T14:51:10.695Z,4.87
2019-03-04T14:53:38.097Z,3.53
2019-03-04T14:56:05.529Z,4.27
2019-03-04T14:58:33.037Z,4.37
2019-03-04T15:01:00.781Z,4.20
2019-03-04T15:03:28.739Z,5.60
2019-03-04T15:06:06.328Z,5.73
2019-03-04T15:08:25.794Z,5.23
2019-03-04T15:10:53.355Z,2.70
2019-03-04T15:13:20.969Z,4.03
2019-03-04T15:15:48.643Z,6.27
2019-03-04T15:18:16.144Z,6.20
2019-03-04T15:20:43.603Z,4.10
2019-03-04T15:23:11.399Z,4.13
2019-03-04T15:25:39.072Z,7.10
2019-03-04T15:28:14.605Z,3.20
2019-03-04T15:30:42.952Z,4.23
2019-03-04T15:33:18.021Z,3.37
2019-03-04T15:35:40.193Z,5.33
2019-03-04T15:38:08.262Z,7.33
2019-03-04T15:40:35.882Z,4.90
2019-03-04T15:43:03.483Z,7.47
2019-03-04T15:45:31.005Z,4.03
2019-03-04T15:47:58.494Z,4.37
2019-03-04T15:50:26.165Z,4.13
2019-03-04T15:52:53.745Z,2.53
2019-03-04T15:55:21.555Z,6.60
2019-03-04T15:57:51.028Z,3.93
2019-03-04T16:00:19.056Z,6.20
2019-03-04T16:02:48.771Z,7.40
2019-03-04T16:05:17.137Z,4.67
2019-03-04T16:07:44.919Z,4.33
2019-03-04T16:10:14.369Z,3.80
2019-03-04T16:12:42.334Z,5.93
2019-03-04T16:15:12.034Z,5.67
2019-03-04T16:17:40.034Z,7.47
2019-03-04T16:20:16.100Z,5.27
2019-03-04T16:22:39.457Z,4.90
2019-03-04T16:25:07.923Z,8.10
2019-03-04T16:27:35.680Z,7.00
2019-03-04T16:30:04.855Z,7.30
2019-03-04T16:32:32.604Z,8.97
2019-03-04T16:35:00.280Z,9.27
2019-03-04T16:37:27.790Z,23.47
2019-03-04T16:39:55.427Z,15.03
2019-03-04T16:42:23.191Z,12.83
2019-03-04T16:44:50.772Z,13.67
2019-03-04T16:47:18.206Z,13.80
2019-03-04T16:49:45.909Z,17.60
2019-03-04T16:52:13.713Z,15.23
2019-03-04T16:54:41.284Z,17.37
2019-03-04T16:57:13.152Z,17.83
2019-03-04T16:59:40.937Z,15.20
2019-03-04T17:02:08.639Z,13.83
2019-03-04T17:04:36.567Z,18.20
2019-03-04T17:07:04.349Z,18.60
2019-03-04T17:09:32.259Z,18.20
2019-03-04T17:11:59.897Z,18.50
2019-03-04T17:14:27.413Z,13.63
2019-03-04T17:16:54.924Z,14.60
2019-03-04T17:19:22.711Z,14.87
2019-03-04T17:21:50.586Z,15.03
2019-03-04T17:24:18.092Z,19.40
2019-03-04T17:26:45.604Z,19.63
2019-03-04T17:29:13.129Z,18.97
2019-03-04T17:31:40.582Z,19.77
2019-03-04T17:34:07.999Z,17.07
2019-03-04T17:36:35.511Z,14.87
2019-03-04T17:39:05.174Z,13.57
2019-03-04T17:41:32.750Z,12.93
2019-03-04T17:44:00.248Z,15.73
2019-03-04T17:46:28.103Z,14.17
2019-03-04T17:48:55.533Z,13.33
2019-03-04T17:51:22.932Z,9.70
2019-03-04T17:53:50.387Z,10.53
2019-03-04T17:56:17.938Z,9.87
2019-03-04T17:58:45.410Z,9.53
2019-03-04T18:01:12.862Z,11.40
2019-03-04T18:03:40.559Z,11.30
2019-03-04T18:06:08.038Z,13.53
2019-03-04T18:08:35.672Z,12.20
2019-03-04T18:11:03.259Z,17.10
2019-03-04T18:13:30.854Z,23.80
2019-03-04T18:15:58.225Z,24.97
2019-03-04T18:18:25.720Z,27.10
2019-03-04T18:20:53.183Z,23.73
2019-03-04T18:23:20.606Z,31.77
2019-03-04T18:25:58.013Z,30.40
2019-03-04T18:29:03.137Z,30.03
2019-03-04T18:31:57.179Z,23.17
2019-03-04T18:35:11.577Z,26.10
2019-03-04T18:38:36.032Z,26.97
2019-03-04T18:41:36.208Z,32.17
2019-03-04T18:44:30.882Z,31.17
2019-03-04T18:47:19.236Z,27.63
2019-03-04T18:49:46.739Z,28.70
2019-03-04T18:52:14.190Z,21.87
2019-03-04T18:54:41.661Z,25.57
2019-03-04T18:57:09.353Z,27.30
2019-03-04T18:59:36.846Z,26.87
2019-03-04T19:02:04.316Z,25.63
2019-03-04T19:04:31.761Z,25.73
2019-03-04T19:06:59.207Z,31.07
2019-03-04T19:09:26.642Z,32.23
2019-03-04T19:11:54.061Z,35.27
2019-03-04T19:14:21.474Z,37.87
2019-03-04T19:16:49.331Z,31.10
2019-03-04T19:19:16.817Z,33.33
2019-03-04T19:21:44.898Z,35.57
2019-03-04T19:24:12.384Z,32.30
2019-03-04T19:26:39.966Z,33.37
2019-03-04T19:29:07.627Z,27.57
2019-03-04T19:31:35.166Z,31.43
2019-03-04T19:34:02.741Z,35.33
2019-03-04T19:36:30.236Z,27.67
2019-03-04T19:38:57.592Z,27.90
2019-03-04T19:41:25.039Z,27.73
2019-03-04T19:43:52.546Z,27.70
2019-03-04T19:46:20.057Z,25.83
2019-03-04T19:48:47.586Z,29.53
2019-03-04T19:51:15.171Z,28.87
2019-03-04T19:53:42.578Z,26.40
2019-03-04T19:56:10.318Z,28.73
2019-03-04T19:58:37.838Z,19.50
2019-03-04T20:01:06.132Z,26.17
2019-03-04T20:03:33.683Z,28.53
2019-03-04T20:06:04.250Z,26.90
2019-03-04T20:08:31.822Z,26.07
2019-03-04T20:10:59.396Z,19.73
2019-03-04T20:13:27.023Z,20.53
2019-03-04T20:15:54.682Z,27.17
2019-03-04T20:18:22.209Z,23.37
2019-03-04T20:20:49.689Z,23.07
2019-03-04T20:23:17.555Z,35.67
2019-03-04T20:25:45.243Z,30.40
2019-03-04T20:28:12.767Z,25.90
2019-03-04T20:30:40.444Z,24.47
2019-03-04T20:33:08.025Z,27.57
2019-03-04T20:35:35.427Z,29.73
2019-03-04T20:38:02.882Z,25.07
2019-03-04T20:40:30.461Z,31.47
2019-03-04T20:42:57.965Z,26.23
2019-03-04T20:45:25.649Z,17.23
2019-03-04T20:47:53.184Z,22.00
2019-03-04T20:50:20.598Z,18.77
2019-03-04T20:52:48.045Z,23.87
2019-03-04T20:55:15.837Z,20.70
2019-03-04T20:57:43.284Z,23.50
2019-03-04T21:00:14.500Z,21.90
2019-03-04T21:02:41.971Z,27.73
2019-03-04T21:05:09.821Z,24.57
2019-03-04T21:07:37.469Z,28.93
2019-03-04T21:10:06.031Z,29.60
2019-03-04T21:12:33.722Z,22.73
2019-03-04T21:15:01.196Z,30.60
2019-03-04T21:17:28.701Z,29.10
2019-03-04T21:19:56.154Z,27.13
2019-03-04T21:22:23.578Z,21.13
2019-03-04T21:24:51.353Z,23.90
2019-03-04T21:27:19.381Z,23.67
2019-03-04T21:30:40.601Z,19.93
2019-03-04T21:33:13.652Z,18.23
2019-03-04T21:36:17.466Z,24.97
2019-03-04T21:38:44.999Z,23.50
2019-03-04T21:41:46.995Z,25.50
2019-03-04T21:44:48.934Z,22.77
2019-03-04T21:47:40.641Z,19.40
2019-03-04T21:50:09.826Z,21.47
2019-03-04T21:53:03.515Z,20.53
2019-03-04T21:55:42.073Z,18.20
2019-03-04T21:58:09.643Z,21.03
2019-03-04T22:00:39.752Z,19.63
2019-03-04T22:03:21.539Z,17.83
2019-03-04T22:05:50.545Z,20.47
2019-03-04T22:08:18.376Z,19.27
2019-03-04T22:10:45.891Z,17.33
2019-03-04T22:13:13.365Z,18.80
2019-03-04T22:15:40.917Z,23.80
2019-03-04T22:18:08.481Z,20.83
2019-03-04T22:20:36.148Z,19.03
2019-03-04T22:23:04.239Z,20.47
2019-03-04T22:25:31.695Z,19.00
2019-03-04T22:27:59.431Z,18.37
2019-03-04T22:30:26.874Z,17.80
2019-03-04T22:32:54.299Z,18.57
2019-03-04T22:35:21.862Z,20.83
2019-03-04T22:37:49.442Z,18.17
2019-03-04T22:40:18.134Z,26.00
2019-03-04T22:42:45.666Z,19.30
2019-03-04T22:45:15.432Z,15.73
2019-03-04T22:47:43.185Z,19.70
2019-03-04T22:50:11.653Z,19.07
2019-03-04T22:52:39.226Z,17.47
2019-03-04T22:55:09.501Z,18.37
2019-03-04T22:57:36.999Z,19.23
2019-03-04T23:00:37.892Z,17.37
2019-03-04T23:03:05.349Z,22.60
2019-03-04T23:05:32.855Z,21.03
2019-03-04T23:08:00.306Z,20.90
2019-03-04T23:10:39.873Z,17.60
2019-03-04T23:13:40.996Z,19.47
2019-03-04T23:16:09.675Z,18.47
2019-03-04T23:18:37.091Z,22.27
2019-03-04T23:21:06.510Z,25.77
2019-03-04T23:23:34.119Z,21.53
2019-03-04T23:26:01.525Z,19.57
2019-03-04T23:28:28.993Z,18.37
2019-03-04T23:30:56.504Z,21.77
2019-03-04T23:33:23.957Z,20.17
2019-03-04T23:35:51.584Z,16.03
2019-03-04T23:38:19.087Z,19.43
2019-03-04T23:40:46.555Z,23.07
2019-03-04T23:43:13.918Z,18.10
2019-03-04T23:45:41.399Z,19.03
2019-03-04T23:48:08.889Z,21.07
2019-03-04T23:50:36.285Z,21.97
2019-03-04T23:53:03.774Z,16.37
2019-03-04T23:55:31.228Z,21.07
2019-03-04T23:57:58.589Z,21.80
